Home > Products > Valid Products > TAF

000
FTUS45 KTFX 192300
TAFCTB
TAF
KCTB 192329Z 2000/2024 23008KT P6SM SKC
     FM202000 23016KT P6SM FEW100=



000
FTUS45 KTFX 192300
TAFBZN
TAF
KBZN 192329Z 2000/2024 VRB05KT P6SM SKC
     FM202000 VRB05KT P6SM FEW100=



000
FTUS45 KTFX 192300
TAFGTF
TAF
KGTF 192329Z 2000/2024 20012KT P6SM SKC
     FM202000 22014KT P6SM FEW100=



000
FTUS45 KTFX 192300
TAFHLN
TAF
KHLN 192329Z 2000/2024 09008KT P6SM SKC
     FM200100 VRB04KT P6SM SKC
     FM202000 VRB04KT P6SM FEW090=



000
FTUS45 KTFX 192300
TAFHVR
TAF
KHVR 192329Z 2000/2024 15006KT P6SM SKC
     FM200900 21006KT P6SM SKC=



000
FTUS45 KTFX 192300
TAFLWT
TAF
KLWT 192329Z 2000/2024 16006KT P6SM SKC
     FM201900 23006KT P6SM FEW100=



000
FTUS45 KTFX 192300
TAFHVR
TAF
KHVR 192329Z 2000/2024 15006KT P6SM SKC
     FM200900 21006KT P6SM SKC=



000
FTUS45 KTFX 192300
TAFLWT
TAF
KLWT 192329Z 2000/2024 16006KT P6SM SKC
     FM201900 23006KT P6SM FEW100=



000
FTUS45 KTFX 192300
TAFGTF
TAF
KGTF 192329Z 2000/2024 20012KT P6SM SKC
     FM202000 22014KT P6SM FEW100=



000
FTUS45 KTFX 192300
TAFBZN
TAF
KBZN 192329Z 2000/2024 VRB05KT P6SM SKC
     FM202000 VRB05KT P6SM FEW100=



000
FTUS45 KTFX 192300
TAFCTB
TAF
KCTB 192329Z 2000/2024 23008KT P6SM SKC
     FM202000 23016KT P6SM FEW100=



000
FTUS45 KTFX 192300
TAFHLN
TAF
KHLN 192329Z 2000/2024 09008KT P6SM SKC
     FM200100 VRB04KT P6SM SKC
     FM202000 VRB04KT P6SM FEW090=



000
FTUS45 KTFX 192100 AAA
TAFCTB
TAF AMD
KCTB 192122Z 1921/2018 19008KT P6SM SKC
     FM200200 23009KT P6SM SKC=



000
FTUS45 KTFX 192000 AAB
TAFGTF
TAF AMD
KGTF 192000Z 1920/2018 23014G24KT P6SM SKC
     FM200200 20008KT P6SM SKC=



000
FTUS45 KTFX 191900 AAA
TAFGTF
TAF AMD
KGTF 191908Z 1919/2018 20012G22KT P6SM SKC
     FM200200 20008KT P6SM SKC=



000
FTUS45 KTFX 191900 AAA
TAFLWT
TAF AMD
KLWT 191906Z 1919/2018 21011KT P6SM SKC
     FM200200 15005KT P6SM SKC=



000
FTUS45 KTFX 191700
TAFLWT
TAF
KLWT 191720Z 1918/2018 17008KT P6SM SKC=



000
FTUS45 KTFX 191700
TAFGTF
TAF
KGTF 191720Z 1918/2018 19011KT P6SM SKC=



000
FTUS45 KTFX 191700
TAFHLN
TAF
KHLN 191720Z 1918/2018 VRB05KT P6SM SKC=



000
FTUS45 KTFX 191700
TAFHVR
TAF
KHVR 191720Z 1918/2018 22008KT P6SM SKC
     FM200200 VRB06KT P6SM SKC=



000
FTUS45 KTFX 191700
TAFCTB
TAF
KCTB 191720Z 1918/2018 22010KT P6SM SKC
     FM192100 21012G22KT P6SM SKC
     FM200200 23009KT P6SM SKC=



000
FTUS45 KTFX 191700
TAFBZN
TAF
KBZN 191720Z 1918/2018 17007KT P6SM SKC=



000
FTUS45 KTFX 191600 AAA
TAFCTB
TAF AMD
KCTB 191645Z 1917/2012 VRB05KT P6SM SKC
     FM191800 22010KT P6SM SKC
     FM192100 21012G22KT P6SM SKC
     FM200200 23009KT P6SM SKC=



000
FTUS45 KTFX 191100
TAFHVR
TAF
KHVR 191124Z 1912/2012 25006KT P6SM SKC
     FM191800 20008KT P6SM SKC
     FM200200 VRB06KT P6SM SKC=



000
FTUS45 KTFX 191100
TAFBZN
TAF
KBZN 191124Z 1912/2012 17007KT P6SM SKC=



000
FTUS45 KTFX 191100
TAFCTB
TAF
KCTB 191124Z 1912/2012 VRB05KT P6SM SKC
     FM191700 22014KT P6SM SKC
     FM200200 23009KT P6SM SKC=



000
FTUS45 KTFX 191100
TAFHLN
TAF
KHLN 191124Z 1912/2012 VRB05KT P6SM SKC=



000
FTUS45 KTFX 191100
TAFLWT
TAF
KLWT 191124Z 1912/2012 12007KT P6SM SKC
     FM191800 17008KT P6SM SKC=



000
FTUS45 KTFX 191100
TAFGTF
TAF
KGTF 191124Z 1912/2012 19011KT P6SM SKC=



000
FTUS45 KTFX 190500
TAFLWT
TAF
KLWT 190520Z 1906/2006 VRB06KT P6SM SKC=



000
FTUS45 KTFX 190500
TAFBZN
TAF
KBZN 190520Z 1906/2006 VRB05KT P6SM SKC=



000
FTUS45 KTFX 190500
TAFHVR
TAF
KHVR 190520Z 1906/2006 23006KT P6SM SKC
     FM191800 23006KT P6SM BKN250
     FM192200 16008KT P6SM SKC=



000
FTUS45 KTFX 190500
TAFCTB
TAF
KCTB 190520Z 1906/2006 23008KT P6SM SKC
     FM191500 24008KT P6SM BKN250
     FM191800 23014KT P6SM SKC
     FM200200 23008KT P6SM SKC=



000
FTUS45 KTFX 190500
TAFGTF
TAF
KGTF 190520Z 1906/2006 21010KT P6SM SKC=



000
FTUS45 KTFX 190500
TAFHLN
TAF
KHLN 190520Z 1906/2006 VRB04KT P6SM SKC=



000
FTUS45 KTFX 182300
TAFHVR
TAF
KHVR 182326Z 1900/1924 26015KT P6SM SKC
     FM190200 23006KT P6SM SKC
     FM192200 17008KT P6SM SCT250=



000
FTUS45 KTFX 182300
TAFGTF
TAF
KGTF 182326Z 1900/1924 25015KT P6SM FEW060
     FM190200 21010KT P6SM SKC=



000
FTUS45 KTFX 182300
TAFBZN
TAF
KBZN 182326Z 1900/1924 32005KT P6SM SKC
     FM190200 VRB05KT P6SM SKC=



000
FTUS45 KTFX 182300
TAFCTB
TAF
KCTB 182326Z 1900/1924 26015KT P6SM SKC
     FM190600 25008KT P6SM SKC
     FM191500 19008KT P6SM BKN250=



000
FTUS45 KTFX 182300
TAFLWT
TAF
KLWT 182326Z 1900/1924 28008KT P6SM SKC
     FM190200 VRB06KT P6SM SKC=



000
FTUS45 KTFX 182300
TAFHLN
TAF
KHLN 182326Z 1900/1924 29008KT P6SM SKC
     FM190200 26006KT P6SM SKC
     FM190600 VRB04KT P6SM SKC=



000
FTUS45 KTFX 182000 AAA
TAFCTB
TAF AMD
KCTB 182043Z 1821/1918 24020G32KT P6SM BKN150
     FM190300 26012KT P6SM SKC=



000
FTUS45 KTFX 182000 AAA
TAFGTF
TAF AMD
KGTF 182033Z 1821/1918 24016G28KT P6SM SCT150
     FM190200 22009KT P6SM SKC=



000
FTUS45 KTFX 181700
TAFGTF
TAF
KGTF 181729Z 1818/1918 22018G30KT P6SM BKN150
     FM190200 22009KT P6SM SKC=



000
FTUS45 KTFX 181700
TAFLWT
TAF
KLWT 181729Z 1818/1918 25015KT P6SM SCT150
     FM182000 28015G28KT P6SM SCT150
     FM190200 24006KT P6SM SKC=



000
FTUS45 KTFX 181700
TAFHVR
TAF
KHVR 181729Z 1818/1918 22015KT P6SM SCT150
     FM182000 26018G28KT P6SM SCT150
     FM190200 24007KT P6SM SKC=



000
FTUS45 KTFX 181700
TAFCTB
TAF
KCTB 181729Z 1818/1918 24020G30KT P6SM BKN150
     FM182000 25025G38KT P6SM BKN150
     FM190300 26012KT P6SM SKC=



000
FTUS45 KTFX 181700
TAFHLN
TAF
KHLN 181729Z 1818/1918 25006KT P6SM SCT180
     FM182100 26008G18KT P6SM SCT090 SCT180
     FM190200 24005KT P6SM SKC=



000
FTUS45 KTFX 181700
TAFBZN
TAF
KBZN 181729Z 1818/1918 VRB06KT P6SM SCT180
     FM190200 16004KT P6SM SKC=



000
FTUS45 KTFX 181100
TAFLWT
TAF
KLWT 181122Z 1812/1912 13006KT P6SM BKN150
     FM181800 26013KT P6SM SCT090 BKN150
     FM190200 24006KT P6SM SKC=



000
FTUS45 KTFX 181100
TAFHLN
TAF
KHLN 181122Z 1812/1912 25005KT P6SM BKN150
     FM181800 26008KT P6SM SCT120
     FM190200 24005KT P6SM SKC=



000
FTUS45 KTFX 181100
TAFBZN
TAF
KBZN 181122Z 1812/1912 15006KT P6SM BKN150
     FM181700 28008KT P6SM SCT120
     FM190200 16004KT P6SM SKC=



000
FTUS45 KTFX 181100
TAFCTB
TAF
KCTB 181122Z 1812/1912 23013KT P6SM BKN120
     FM181700 26025G35KT P6SM BKN150
     FM190300 26012KT P6SM SKC=



000
FTUS45 KTFX 181100
TAFHVR
TAF
KHVR 181122Z 1812/1912 12005KT P6SM BKN120
     FM181900 26015KT P6SM BKN150
     FM190200 24007KT P6SM SKC=



000
FTUS45 KTFX 181100
TAFGTF
TAF
KGTF 181122Z 1812/1912 22012KT P6SM BKN120
     FM181900 23018KT P6SM SCT150
     FM190200 22009KT P6SM SKC=



000
FTUS45 KTFX 181100
TAFHLN
TAF
KHLN 181122Z 1812/1912 25005KT P6SM BKN150
     FM181800 26008KT P6SM SCT120
     FM190200 24005KT P6SM SKC=



000
FTUS45 KTFX 181100
TAFLWT
TAF
KLWT 181122Z 1812/1912 13006KT P6SM BKN150
     FM181800 26013KT P6SM SCT090 BKN150
     FM190200 24006KT P6SM SKC=



000
FTUS45 KTFX 181100
TAFBZN
TAF
KBZN 181122Z 1812/1912 15006KT P6SM BKN150
     FM181700 28008KT P6SM SCT120
     FM190200 16004KT P6SM SKC=



000
FTUS45 KTFX 181100
TAFGTF
TAF
KGTF 181122Z 1812/1912 22012KT P6SM BKN120
     FM181900 23018KT P6SM SCT150
     FM190200 22009KT P6SM SKC=



000
FTUS45 KTFX 181100
TAFHVR
TAF
KHVR 181122Z 1812/1912 12005KT P6SM BKN120
     FM181900 26015KT P6SM BKN150
     FM190200 24007KT P6SM SKC=



000
FTUS45 KTFX 181100
TAFCTB
TAF
KCTB 181122Z 1812/1912 23013KT P6SM BKN120
     FM181700 26025G35KT P6SM BKN150
     FM190300 26012KT P6SM SKC=



000
FTUS45 KTFX 180500
TAFLWT
TAF
KLWT 180520Z 1806/1906 12006KT P6SM SCT250
     FM181100 17006KT P6SM BKN250
     FM181700 25008KT P6SM SCT100 BKN250
     FM182100 29010KT P6SM FEW080
     FM190200 VRB06KT P6SM SKC=



000
FTUS45 KTFX 180500
TAFBZN
TAF
KBZN 180520Z 1806/1906 VRB04KT P6SM BKN250
     FM182000 29005KT P6SM FEW080
     FM190200 VRB05KT P6SM SKC=



000
FTUS45 KTFX 180500
TAFCTB
TAF
KCTB 180520Z 1806/1906 23005KT P6SM BKN120
     FM181600 25012KT P6SM SCT120
     FM181900 26022G30KT P6SM SKC
     FM190300 26012KT P6SM SKC=



000
FTUS45 KTFX 180500
TAFHLN
TAF
KHLN 180520Z 1806/1906 VRB03KT P6SM SCT120 BKN250
     FM181800 VRB06KT P6SM SKC
     FM182000 28008KT P6SM FEW070
     FM190200 VRB05KT P6SM SKC=



000
FTUS45 KTFX 180500
TAFHVR
TAF
KHVR 180520Z 1806/1906 12005KT P6SM SCT250
     FM181000 21006KT P6SM SCT120 BKN250
     FM181700 24010KT P6SM BKN120
     FM181900 26015KT P6SM FEW070
     FM190200 24008KT P6SM SKC=



000
FTUS45 KTFX 180500
TAFGTF
TAF
KGTF 180520Z 1806/1906 20010KT P6SM SCT120 BKN250
     FM181900 25016KT P6SM SKC
     FM190200 23010KT P6SM SKC=



000
FTUS45 KTFX 172300
TAFGTF
TAF
KGTF 172320Z 1800/1824 20010KT P6SM SCT120 BKN250
     FM181900 25015KT P6SM SKC=



000
FTUS45 KTFX 172300
TAFHLN
TAF
KHLN 172320Z 1800/1824 VRB03KT P6SM SCT120 BKN250
     FM181800 VRB06KT P6SM SKC
     FM182000 28008KT P6SM FEW070=



000
FTUS45 KTFX 172300
TAFCTB
TAF
KCTB 172320Z 1800/1824 17008KT P6SM BKN250
     FM180500 23005KT P6SM SCT120 SCT250
     FM180900 24008KT P6SM BKN120
     FM181600 25012KT P6SM SKC
     FM181900 26022G30KT P6SM SKC=



000
FTUS45 KTFX 172300
TAFHVR
TAF
KHVR 172320Z 1800/1824 13008KT P6SM BKN250
     FM180700 13005KT P6SM SKC
     FM181000 21006KT P6SM SCT120 BKN250
     FM181700 24010KT P6SM BKN120
     FM181900 26015KT P6SM SKC=



000
FTUS45 KTFX 172300
TAFLWT
TAF
KLWT 172320Z 1800/1824 14005KT P6SM BKN250
     FM180600 14006KT P6SM SKC
     FM181100 17006KT P6SM BKN250
     FM181700 25008KT P6SM SCT100 BKN250
     FM182100 28010KT P6SM FEW080=



000
FTUS45 KTFX 172300
TAFHVR
TAF
KHVR 172320Z 1800/1824 13008KT P6SM BKN250
     FM180700 13005KT P6SM SKC
     FM181000 21006KT P6SM SCT120 BKN250
     FM181700 24010KT P6SM BKN120
     FM181900 26015KT P6SM SKC=



000
FTUS45 KTFX 172300
TAFHLN
TAF
KHLN 172320Z 1800/1824 VRB03KT P6SM SCT120 BKN250
     FM181800 VRB06KT P6SM SKC
     FM182000 28008KT P6SM FEW070=



000
FTUS45 KTFX 172300
TAFBZN
TAF
KBZN 172320Z 1800/1824 VRB04KT P6SM SCT250
     FM180600 VRB04KT P6SM BKN250
     FM182000 29005KT P6SM FEW080=



000
FTUS45 KTFX 172300
TAFLWT
TAF
KLWT 172320Z 1800/1824 14005KT P6SM BKN250
     FM180600 14006KT P6SM SKC
     FM181100 17006KT P6SM BKN250
     FM181700 25008KT P6SM SCT100 BKN250
     FM182100 28010KT P6SM FEW080=



000
FTUS45 KTFX 172300
TAFCTB
TAF
KCTB 172320Z 1800/1824 17008KT P6SM BKN250
     FM180500 23005KT P6SM SCT120 SCT250
     FM180900 24008KT P6SM BKN120
     FM181600 25012KT P6SM SKC
     FM181900 26022G30KT P6SM SKC=



000
FTUS45 KTFX 172300
TAFBZN
TAF
KBZN 172320Z 1800/1824 VRB04KT P6SM SCT250
     FM180600 VRB04KT P6SM BKN250
     FM182000 29005KT P6SM FEW080=



000
FTUS45 KTFX 172300
TAFGTF
TAF
KGTF 172320Z 1800/1824 20010KT P6SM SCT120 BKN250
     FM181900 25015KT P6SM SKC=



000
FTUS45 KTFX 172000 AAA
TAFCTB
TAF AMD
KCTB 172017Z 1720/1818 17008G18KT P6SM SCT250
      TEMPO 1720/1722 20008G18KT
     FM172200 21011KT P6SM SCT200
     FM180400 24011KT P6SM SCT070 BKN110
     FM181200 25013G23KT P6SM SCT070 BKN110=



000
FTUS45 KTFX 172000 AAA
TAFCTB
TAF AMD
KCTB 172017Z 1720/1818 17008G18KT P6SM SCT250
      TEMPO 1720/1722 20008G18KT
     FM172200 21011KT P6SM SCT200
     FM180400 24011KT P6SM SCT070 BKN110
     FM181200 25013G23KT P6SM SCT070 BKN110=



000
FTUS45 KTFX 171800 AAA
TAFHVR
TAF AMD
KHVR 171815Z 1718/1818 07011KT P6SM VCFG SCT005
     FM171900 09011KT P6SM SCT250
     FM180600 12008KT P6SM SCT090 BKN150=



000
FTUS45 KTFX 171700 CCA
TAFHVR
TAF COR
KHVR 171745Z 1718/1818 06006KT 3SM BR VV004
      TEMPO 1718/1719 6SM BR SCT005
     FM171900 09011KT P6SM SCT250
     FM180600 12008KT P6SM SCT090 BKN150=



000
FTUS45 KTFX 171700
TAFHLN
TAF
KHLN 171729Z 1718/1818 17006KT P6SM SCT250
     FM180500 18006KT P6SM SCT100 BKN150
     FM181500 25010KT P6SM BKN080=



000
FTUS45 KTFX 171700
TAFLWT
TAF
KLWT 171729Z 1718/1818 13011KT P6SM SCT250
     FM180600 20010KT P6SM SCT090 BKN150=



000
FTUS45 KTFX 171700
TAFCTB
TAF
KCTB 171729Z 1718/1818 17008KT P6SM SCT250
      TEMPO 1718/1720 20011KT
     FM172000 21011KT P6SM SCT200
     FM180400 24011KT P6SM SCT070 BKN110
     FM181200 25013G23KT P6SM SCT070 BKN110=



000
FTUS45 KTFX 171700
TAFHVR
TAF
KHVR 171729Z 1718/1818 06006KT 1SM BR VV004
      TEMPO 1718/1719 4SM BR SCT005
     FM171900 09011KT P6SM SCT250
     FM180600 12008KT P6SM SCT090 BKN150=



000
FTUS45 KTFX 171700
TAFGTF
TAF
KGTF 171729Z 1718/1818 19011KT P6SM SCT250
     FM180400 21015KT P6SM SCT080 BKN120=



000
FTUS45 KTFX 171700
TAFBZN
TAF
KBZN 171729Z 1718/1818 17006KT P6SM SCT250
     FM180500 15005KT P6SM SCT100 BKN150=



000
FTUS45 KTFX 171600 AAB
TAFHVR
TAF AMD
KHVR 171602Z 1716/1812 VRB03KT 1/4SM FG BKN002
      TEMPO 1716/1718 3SM BR SCT002
     FM171800 09005KT P6SM SKC
     FM172000 12014KT P6SM SCT150
     FM180200 12008KT P6SM BKN150=



000
FTUS45 KTFX 171600 AAB
TAFHVR
TAF AMD
KHVR 171602Z 1716/1812 VRB03KT 1/4SM FG BKN002
      TEMPO 1716/1718 3SM BR SCT002
     FM171800 09005KT P6SM SKC
     FM172000 12014KT P6SM SCT150
     FM180200 12008KT P6SM BKN150=



000
FTUS45 KTFX 171300 AAA
TAFHVR
TAF AMD
KHVR 171358Z 1714/1812 VRB03KT 1/4SM FG BKN002
      TEMPO 1714/1716 3SM BR SCT002
     FM171600 09005KT P6SM SKC
     FM172000 12014KT P6SM SCT150
     FM180200 12008KT P6SM BKN150=



000
FTUS45 KTFX 171100
TAFGTF
TAF
KGTF 171136Z 1712/1812 VRB04KT P6SM FEW150
     FM171700 20012KT P6SM SCT150
     FM180200 21010KT P6SM BKN120=



000
FTUS45 KTFX 171100
TAFLWT
TAF
KLWT 171136Z 1712/1812 14005KT P6SM SKC
     FM172000 14011KT P6SM SCT150
     FM180300 17007KT P6SM BKN150=



000
FTUS45 KTFX 171100
TAFBZN
TAF
KBZN 171136Z 1712/1812 17005KT P6SM SKC
     FM180500 15005KT P6SM BKN120=



000
FTUS45 KTFX 171100
TAFCTB
TAF
KCTB 171136Z 1712/1812 VRB04KT P6SM FEW150
     FM171800 20014KT P6SM SCT150
     FM180200 24012KT P6SM BKN120=



000
FTUS45 KTFX 171100
TAFGTF
TAF
KGTF 171136Z 1712/1812 VRB04KT P6SM FEW150
     FM171700 20012KT P6SM SCT150
     FM180200 21010KT P6SM BKN120=



000
FTUS45 KTFX 171100
TAFLWT
TAF
KLWT 171136Z 1712/1812 14005KT P6SM SKC
     FM172000 14011KT P6SM SCT150
     FM180300 17007KT P6SM BKN150=



000
FTUS45 KTFX 171100
TAFBZN
TAF
KBZN 171136Z 1712/1812 17005KT P6SM SKC
     FM180500 15005KT P6SM BKN120=



000
FTUS45 KTFX 171100
TAFHLN
TAF
KHLN 171136Z 1712/1812 VRB05KT P6SM FEW150
     FM180600 20005KT P6SM BKN150=



000
FTUS45 KTFX 171100
TAFHVR
TAF
KHVR 171136Z 1712/1812 VRB03KT 1/4SM FG BKN002
      TEMPO 1712/1714 3SM BR BKN002
     FM171400 09005KT P6SM SKC
     FM172000 12014KT P6SM SCT150
     FM180200 12008KT P6SM BKN150=



000
FTUS45 KTFX 171100
TAFCTB
TAF
KCTB 171136Z 1712/1812 VRB04KT P6SM FEW150
     FM171800 20014KT P6SM SCT150
     FM180200 24012KT P6SM BKN120=



000
FTUS45 KTFX 171100
TAFHLN
TAF
KHLN 171136Z 1712/1812 VRB05KT P6SM FEW150
     FM180600 20005KT P6SM BKN150=



000
FTUS45 KTFX 171100
TAFHVR
TAF
KHVR 171136Z 1712/1812 VRB03KT 1/4SM FG BKN002
      TEMPO 1712/1714 3SM BR BKN002
     FM171400 09005KT P6SM SKC
     FM172000 12014KT P6SM SCT150
     FM180200 12008KT P6SM BKN150=



000
FTUS45 KTFX 171000 AAB
TAFHVR
TAF AMD
KHVR 171002Z 1710/1806 08004KT 5SM BR SCT002
      TEMPO 1710/1712 1/4SM FG BKN002
     FM171500 09005KT P6SM SKC
     FM172000 14014KT P6SM SCT250
     FM180200 12008KT P6SM BKN250=



000
FTUS45 KTFX 170900 AAA
TAFHVR
TAF AMD
KHVR 170937Z 1710/1806 08004KT 5SM BR SCT002
      TEMPO 1710/1712 1SM BR BKN002
     FM171500 09005KT P6SM SKC
     FM172000 14014KT P6SM SCT250
     FM180200 12008KT P6SM BKN250=



000
FTUS45 KTFX 170500
TAFLWT
TAF
KLWT 170520Z 1706/1806 13005KT P6SM SCT120 BKN200
     FM170900 13005KT P6SM SKC
     FM172000 14010KT P6SM SCT250=



000
FTUS45 KTFX 170500
TAFBZN
TAF
KBZN 170520Z 1706/1806 VRB05KT P6SM SKC=



000
FTUS45 KTFX 170500
TAFGTF
TAF
KGTF 170520Z 1706/1806 20007KT P6SM SKC
     FM171700 20010KT P6SM BKN250=



000
FTUS45 KTFX 170500
TAFCTB
TAF
KCTB 170520Z 1706/1806 27006KT P6SM SKC
     FM171200 VRB03KT P6SM BKN250
     FM171800 19012KT P6SM BKN200
     FM180200 24008KT P6SM BKN150=



000
FTUS45 KTFX 170500
TAFLWT
TAF
KLWT 170520Z 1706/1806 13005KT P6SM SCT120 BKN200
     FM170900 13005KT P6SM SKC
     FM172000 14010KT P6SM SCT250=



000
FTUS45 KTFX 170500
TAFHVR
TAF
KHVR 170520Z 1706/1806 10005KT P6SM BKN250
     FM171100 10004KT P6SM VCFG SKC
      TEMPO 1711/1715 1SM BR SCT004
     FM171500 09005KT P6SM SKC
     FM172000 14014KT P6SM SCT250
     FM180200 12008KT P6SM BKN250=



000
FTUS45 KTFX 170500
TAFHLN
TAF
KHLN 170520Z 1706/1806 VRB03KT P6SM SKC=



000
FTUS45 KTFX 170500
TAFHVR
TAF
KHVR 170520Z 1706/1806 10005KT P6SM BKN250
     FM171100 10004KT P6SM VCFG SKC
      TEMPO 1711/1715 1SM BR SCT004
     FM171500 09005KT P6SM SKC
     FM172000 14014KT P6SM SCT250
     FM180200 12008KT P6SM BKN250=



000
FTUS45 KTFX 170500
TAFHLN
TAF
KHLN 170520Z 1706/1806 VRB03KT P6SM SKC=



000
FTUS45 KTFX 170500
TAFBZN
TAF
KBZN 170520Z 1706/1806 VRB05KT P6SM SKC=



000
FTUS45 KTFX 170500
TAFGTF
TAF
KGTF 170520Z 1706/1806 20007KT P6SM SKC
     FM171700 20010KT P6SM BKN250=



000
FTUS45 KTFX 170500
TAFCTB
TAF
KCTB 170520Z 1706/1806 27006KT P6SM SKC
     FM171200 VRB03KT P6SM BKN250
     FM171800 19012KT P6SM BKN200
     FM180200 24008KT P6SM BKN150=



    US Dept of Commerce
    National Oceanic and Atmospheric Administration
    National Weather Service
    1325 East West Highway
    Silver Spring, MD 20910
    Page Author: NWS Internet Services Team
Disclaimer
Information Quality
Credits
Glossary
Privacy Policy
Freedom of Information Act (FOIA)
About Us
Career Opportunities